Time;durP1;ratioP1;P1;durP2;ratioP2;P2;SDS_P1;SDS_P2;PMS_P1;PMS_P2;Temp;Humidity;BMP_temperature;BMP_pressure;BME280_temperature;BME280_humidity;BME280_pressure;Samples;Min_cycle;Max_cycle;Signal;HPM_P1;HPM_P2
2021/04/12 00:02:25;;;;;;;3.23;2.40;;;;;;;;;;5030694;28;20432;-73
2021/04/12 00:05:14;;;;;;;3.30;2.92;;;;;;;;;;5028667;28;20391;-73
2021/04/12 00:07:48;;;;;;;3.50;2.60;;;;;;;;;;4992669;28;20444;-73
2021/04/12 00:10:20;;;;;;;2.13;1.90;;;;;;;;;;5031338;28;20469;-73
2021/04/12 00:12:56;;;;;;;3.65;2.42;;;;;;;;;;5029802;28;20450;-72
2021/04/12 00:15:26;;;;;;;3.77;2.50;;;;;;;;;;5030411;28;20918;-72
2021/04/12 00:17:54;;;;;;;3.72;2.80;;;;;;;;;;5029786;28;20470;-72
2021/04/12 00:20:29;;;;;;;3.30;2.28;;;;;;;;;;5029780;28;20375;-73
2021/04/12 00:23:00;;;;;;;3.08;2.60;;;;;;;;;;5029374;28;20387;-74
2021/04/12 00:25:29;;;;;;;2.53;2.30;;;;;;;;;;5030065;28;20391;-71
2021/04/12 00:28:21;;;;;;;3.08;2.30;;;;;;;;;;5029439;28;20380;-71
2021/04/12 00:30:50;;;;;;;4.10;2.50;;;;;;;;;;5028444;28;20394;-71
2021/04/12 00:33:20;;;;;;;4.10;2.60;;;;;;;;;;5030270;28;20383;-72
2021/04/12 00:35:59;;;;;;;2.33;1.70;;;;;;;;;;5015467;28;20417;-73
2021/04/12 00:38:25;;;;;;;3.00;2.30;;;;;;;;;;5010170;28;20397;-73
2021/04/12 00:41:09;;;;;;;3.97;2.42;;;;;;;;;;5009592;28;20389;-73
2021/04/12 00:43:57;;;;;;;4.30;3.00;;;;;;;;;;5010022;28;20396;-73
2021/04/12 00:46:41;;;;;;;5.13;2.90;;;;;;;;;;5010019;28;20436;-72
2021/04/12 00:49:07;;;;;;;2.97;2.15;;;;;;;;;;5013685;28;20385;-73
2021/04/12 00:51:43;;;;;;;3.30;2.65;;;;;;;;;;5010660;28;20408;-73
2021/04/12 00:54:09;;;;;;;3.20;2.70;;;;;;;;;;5014566;28;20436;-73
2021/04/12 00:56:38;;;;;;;4.15;2.50;;;;;;;;;;5015927;28;20380;-73
2021/04/12 00:59:19;;;;;;;3.58;3.00;;;;;;;;;;5016090;28;20376;-72
2021/04/12 01:02:07;;;;;;;2.63;2.25;;;;;;;;;;5013519;28;20383;-73
2021/04/12 01:05:07;;;;;;;3.08;2.40;;;2.80;99.90;;;;;;5014371;28;20380;-73
2021/04/12 01:07:47;;;;;;;2.83;2.38;;;;;;;;;;4982764;28;20393;-72
2021/04/12 01:10:13;;;;;;;3.40;2.20;;;;;;;;;;5013613;28;20393;-72
2021/04/12 01:12:58;;;;;;;3.03;2.30;;;;;;;;;;5015849;28;20381;-73
2021/04/12 01:15:33;;;;;;;2.87;1.90;;;;;;;;;;5033651;28;20472;-72
2021/04/12 01:18:34;;;;;;;3.10;1.90;;;2.60;99.90;;;;;;5018063;28;20388;-73
2021/04/12 01:21:09;;;;;;;2.40;1.90;;;;;;;;;;5017306;28;20673;-73
2021/04/12 01:24:09;;;;;;;2.25;1.40;;;2.30;99.90;;;;;;5024938;28;20696;-74
2021/04/12 01:26:51;;;;;;;3.88;2.08;;;;;;;;;;5021366;28;20371;-73
2021/04/12 01:29:35;;;;;;;2.25;1.60;;;;;;;;;;5013120;28;20880;-74
2021/04/12 01:32:01;;;;;;;1.90;1.70;;;;;;;;;;5012763;28;20381;-73
2021/04/12 01:34:38;;;;;;;2.33;2.10;;;;;;;;;;5013153;28;20412;-73
2021/04/12 01:37:09;;;;;;;2.58;1.90;;;;;;;;;;5012431;28;20817;-73
2021/04/12 01:40:02;;;;;;;2.90;2.00;;;2.80;99.90;;;;;;5013580;28;20399;-73
2021/04/12 01:42:28;;;;;;;2.17;1.83;;;;;;;;;;5013446;28;20385;-73
2021/04/12 01:45:03;;;;;;;2.40;1.80;;;;;;;;;;5012837;28;20396;-72
2021/04/12 01:47:35;;;;;;;3.00;2.38;;;;;;;;;;5012076;28;20904;-72
2021/04/12 01:50:20;;;;;;;3.10;2.33;;;;;;;;;;5012308;28;20384;-72
2021/04/12 01:52:49;;;;;;;3.10;2.30;;;;;;;;;;5012567;28;20383;-72
2021/04/12 01:55:39;;;;;;;2.40;1.80;;;3.20;99.90;;;;;;5013158;28;20503;-72
2021/04/12 01:58:14;;;;;;;2.60;1.80;;;;;;;;;;5015968;28;20399;-71
2021/04/12 02:00:56;;;;;;;2.88;2.08;;;;;;;;;;5032906;28;20379;-72
2021/04/12 02:03:37;;;;;;;2.50;1.90;;;;;;;;;;5032639;28;20486;-71
2021/04/12 02:06:03;;;;;;;2.78;2.30;;;;;;;;;;5032097;28;20379;-71
2021/04/12 02:08:55;;;;;;;2.10;1.90;;;;;;;;;;5031838;28;20454;-71
2021/04/12 02:11:34;;;;;;;2.20;1.83;;;;;;;;;;5026378;28;20433;-71
2021/04/12 02:14:13;;;;;;;2.45;1.83;;;2.40;99.90;;;;;;5024453;28;20713;-71
2021/04/12 02:16:57;;;;;;;2.20;2.00;;;2.40;99.90;;;;;;5032618;28;20897;-71
2021/04/12 02:19:23;;;;;;;1.92;1.73;;;;;;;;;;5032468;28;20390;-71
2021/04/12 02:22:10;;;;;;;1.88;1.67;;;2.90;99.90;;;;;;5031789;28;20386;-72
2021/04/12 02:25:00;;;;;;;2.75;2.10;;;3.00;99.90;;;;;;5032158;28;20387;-72
2021/04/12 02:27:26;;;;;;;2.45;1.70;;;;;;;;;;5029099;28;20466;-72
2021/04/12 02:29:52;;;;;;;2.83;2.00;;;;;;;;;;5029505;28;20455;-72
2021/04/12 02:32:18;;;;;;;2.30;1.73;;;;;;;;;;5031220;28;20390;-72
2021/04/12 02:35:22;;;;;;;2.10;1.80;;;2.70;99.90;;;;;;5032273;28;20399;-71
2021/04/12 02:37:51;;;;;;;2.40;1.90;;;;;;;;;;5031464;28;20383;-72
2021/04/12 02:40:17;;;;;;;2.30;1.92;;;;;;;;;;5032400;28;20697;-71
2021/04/12 02:42:48;;;;;;;2.80;2.13;;;;;;;;;;5032035;28;20387;-71
2021/04/12 02:45:32;;;;;;;2.20;1.90;;;;;;;;;;5032061;28;20368;-71
2021/04/12 02:48:07;;;;;;;2.10;1.90;;;;;;;;;;5031330;28;20406;-72
2021/04/12 02:50:51;;;;;;;2.65;2.10;;;;;;;;;;5031620;28;20371;-72
2021/04/12 02:53:29;;;;;;;2.55;1.90;;;;;;;;;;5021207;28;20396;-72
2021/04/12 02:56:17;;;;;;;2.92;1.92;;;2.50;99.90;;;;;;5014052;28;20389;-71
2021/04/12 02:59:01;;;;;;;2.13;1.80;;;;;;;;;;5011886;28;20390;-71
2021/04/12 03:01:42;;;;;;;2.25;2.05;;;;;;;;;;5011688;28;20734;-72
2021/04/12 03:04:39;;;;;;;2.20;2.00;;;2.50;99.90;;;;;;5011186;28;20666;-72
2021/04/12 03:07:17;;;;;;;2.72;2.10;;;;;;;;;;5011026;28;20388;-72
2021/04/12 03:10:07;;;;;;;2.38;2.17;;;;;;;;;;5014589;28;20428;-72
2021/04/12 03:12:49;;;;;;;3.60;2.35;;;;;;;;;;4976041;28;20400;-72
2021/04/12 03:15:18;;;;;;;2.20;1.88;;;;;;;;;;4991856;28;20417;-72
2021/04/12 03:18:03;;;;;;;2.58;2.35;;;;;;;;;;4991028;28;20370;-75
2021/04/12 03:20:32;;;;;;;2.30;2.00;;;;;;;;;;5004596;28;20440;-72
2021/04/12 03:23:14;;;;;;;2.55;2.10;;;;;;;;;;5006118;28;20424;-73
2021/04/12 03:25:57;;;;;;;2.00;1.80;;;;;;;;;;5003201;28;20367;-73
2021/04/12 03:28:23;;;;;;;2.28;1.80;;;;;;;;;;5002507;28;20458;-73
2021/04/12 03:30:58;;;;;;;3.63;1.90;;;;;;;;;;5004478;28;20871;-73
2021/04/12 03:33:24;;;;;;;1.73;1.63;;;;;;;;;;5003290;28;20432;-74
2021/04/12 03:36:08;;;;;;;1.50;1.35;;;;;;;;;;5004171;28;20459;-73
2021/04/12 03:38:38;;;;;;;1.90;1.35;;;;;;;;;;5004521;28;20397;-73
2021/04/12 03:41:07;;;;;;;1.88;1.65;;;;;;;;;;5002112;28;20389;-73
2021/04/12 03:43:39;;;;;;;2.17;1.88;;;;;;;;;;5004354;28;20488;-74
2021/04/12 03:46:11;;;;;;;2.30;1.60;;;;;;;;;;5005794;28;20393;-74
2021/04/12 03:48:42;;;;;;;1.80;1.70;;;;;;;;;;5005422;28;20383;-73
2021/04/12 03:51:22;;;;;;;2.37;2.17;;;2.70;99.90;;;;;;5001874;28;20457;-73
2021/04/12 03:53:48;;;;;;;1.90;1.80;;;;;;;;;;5000292;28;20423;-74
2021/04/12 03:56:14;;;;;;;2.38;2.17;;;;;;;;;;5004252;28;20397;-73
2021/04/12 03:59:12;;;;;;;2.70;2.20;;;;;;;;;;5002097;28;20418;-73
2021/04/12 04:01:59;;;;;;;2.47;2.28;;;;;;;;;;4975575;28;20880;-73
2021/04/12 04:04:33;;;;;;;2.85;2.35;;;;;;;;;;5002675;28;20439;-72
2021/04/12 04:07:02;;;;;;;2.97;2.43;;;;;;;;;;5001956;28;20472;-74
2021/04/12 04:09:37;;;;;;;3.15;2.67;;;;;;;;;;5001928;28;20397;-73
2021/04/12 04:12:13;;;;;;;2.78;2.13;;;;;;;;;;4998584;28;20421;-74
2021/04/12 04:14:42;;;;;;;3.05;2.50;;;;;;;;;;5001616;28;20435;-72
2021/04/12 04:17:20;;;;;;;2.33;1.98;;;;;;;;;;4998643;28;20814;-74
2021/04/12 04:20:01;;;;;;;3.00;2.00;;;;;;;;;;4996049;28;20455;-73
2021/04/12 04:22:46;;;;;;;2.55;2.00;;;;;;;;;;5002824;28;20401;-72
2021/04/12 04:25:35;;;;;;;2.60;2.13;;;;;;;;;;5001360;28;20524;-72
2021/04/12 04:28:01;;;;;;;3.13;2.63;;;;;;;;;;4999664;28;20381;-74
2021/04/12 04:30:52;;;;;;;2.30;2.03;;;2.30;99.90;;;;;;4999580;28;20772;-72
2021/04/12 04:33:42;;;;;;;2.90;2.42;;;;;;;;;;5001345;28;20397;-72
2021/04/12 04:36:08;;;;;;;2.97;2.42;;;;;;;;;;5002236;28;20446;-73
2021/04/12 04:38:47;;;;;;;3.85;2.50;;;;;;;;;;5004473;28;20885;-74
2021/04/12 04:41:23;;;;;;;3.15;2.53;;;;;;;;;;5006154;28;21233;-73
2021/04/12 04:44:21;;;;;;;4.22;2.80;;;;;;;;;;5005063;28;20476;-72
2021/04/12 04:46:47;;;;;;;2.83;2.40;;;;;;;;;;4961535;28;20435;-74
2021/04/12 04:49:28;;;;;;;3.65;2.83;;;;;;;;;;5000094;28;21160;-73
2021/04/12 04:52:15;;;;;;;3.22;2.55;;;;;;;;;;5002739;28;20377;-76
2021/04/12 04:54:51;;;;;;;3.10;2.80;;;;;;;;;;5006803;28;20408;-75
2021/04/12 04:57:17;;;;;;;3.33;2.90;;;;;;;;;;5006917;28;21024;-73
2021/04/12 05:00:13;;;;;;;3.90;2.60;;;2.30;99.90;;;;;;5001808;28;20392;-74
2021/04/12 05:03:03;;;;;;;4.13;3.30;;;2.30;99.90;;;;;;5004578;28;20483;-74
2021/04/12 05:05:35;;;;;;;4.00;3.10;;;;;;;;;;5004705;28;20476;-73
2021/04/12 05:08:17;;;;;;;3.30;3.00;;;;;;;;;;5001481;28;20388;-72
2021/04/12 05:11:01;;;;;;;4.05;3.40;;;;;;;;;;5008709;28;20397;-75
2021/04/12 05:13:45;;;;;;;4.10;3.40;;;;;;;;;;5010609;28;20913;-74
2021/04/12 05:16:11;;;;;;;4.32;3.20;;;;;;;;;;5021737;28;20759;-75
2021/04/12 05:18:37;;;;;;;3.90;3.33;;;;;;;;;;5020132;28;20427;-74
2021/04/12 05:21:04;;;;;;;4.25;3.60;;;;;;;;;;5023514;28;20461;-72
2021/04/12 05:23:45;;;;;;;5.00;3.58;;;;;;;;;;5026590;28;20467;-72
2021/04/12 05:26:27;;;;;;;3.90;3.50;;;;;;;;;;5027328;28;20476;-73
2021/04/12 05:29:05;;;;;;;5.80;3.78;;;;;;;;;;5025212;28;20905;-74
2021/04/12 05:31:47;;;;;;;4.07;3.30;;;;;;;;;;5023907;28;20430;-75
2021/04/12 05:34:28;;;;;;;3.95;2.90;;;;;;;;;;5023564;28;20418;-73
2021/04/12 05:37:02;;;;;;;3.47;3.17;;;;;;;;;;5027491;28;20456;-75
2021/04/12 05:39:37;;;;;;;5.60;3.65;;;;;;;;;;5023588;28;20406;-73
2021/04/12 05:42:09;;;;;;;3.75;3.35;;;;;;;;;;5023079;28;20392;-74
2021/04/12 05:44:58;;;;;;;4.60;3.60;;;;;;;;;;5027777;28;20410;-73
2021/04/12 05:47:33;;;;;;;4.60;3.63;;;;;;;;;;5032531;28;20881;-73
2021/04/12 05:49:59;;;;;;;4.10;3.05;;;;;;;;;;5031624;28;20437;-73
2021/04/12 05:52:36;;;;;;;5.90;3.50;;;;;;;;;;5031371;28;20387;-73
2021/04/12 05:55:05;;;;;;;4.90;3.53;;;;;;;;;;5029237;28;20413;-73
2021/04/12 05:57:43;;;;;;;5.68;4.38;;;;;;;;;;5030895;28;20421;-72
2021/04/12 06:00:16;;;;;;;4.70;3.80;;;;;;;;;;5029778;28;20375;-74
2021/04/12 06:03:05;;;;;;;4.45;3.58;;;;;;;;;;5030843;28;20418;-73
2021/04/12 06:05:40;;;;;;;4.80;3.40;;;;;;;;;;5022928;28;20598;-73
2021/04/12 06:08:25;;;;;;;5.00;3.75;;;;;;;;;;5030507;28;20371;-73
2021/04/12 06:11:21;;;;;;;4.50;3.38;;;2.60;99.90;;;;;;5025103;28;20395;-73
2021/04/12 06:13:47;;;;;;;3.55;3.25;;;;;;;;;;5014963;28;20512;-73
2021/04/12 06:16:13;;;;;;;4.00;3.58;;;;;;;;;;5010547;28;20804;-73
2021/04/12 06:19:06;;;;;;;3.70;3.17;;;2.60;99.90;;;;;;5010934;28;20492;-73
2021/04/12 06:22:09;;;;;;;3.55;3.25;;;2.60;99.90;;;;;;5010798;28;20728;-73
2021/04/12 06:25:12;;;;;;;3.80;3.23;;;2.90;99.90;;;;;;5010556;28;20396;-74
2021/04/12 06:27:57;;;;;;;4.07;3.30;;;2.70;99.90;;;;;;5009663;28;20845;-72
2021/04/12 06:30:30;;;;;;;3.80;2.90;;;;;;;;;;5017147;28;20445;-72
2021/04/12 06:33:21;;;;;;;3.33;3.03;;;2.50;99.90;;;;;;5008459;28;20430;-72
2021/04/12 06:36:15;;;;;;;4.55;3.25;;;2.80;99.90;;;;;;5009447;28;20412;-72
2021/04/12 06:38:59;;;;;;;5.07;3.40;;;;;;;;;;5010585;28;20400;-72
2021/04/12 06:41:44;;;;;;;4.40;2.80;;;;;;;;;;5009004;28;20399;-71
2021/04/12 06:44:29;;;;;;;3.38;3.08;;;;;;;;;;5007945;28;20756;-71
2021/04/12 06:46:59;;;;;;;5.70;3.33;;;;;;;;;;5010726;28;20399;-72
2021/04/12 06:49:25;;;;;;;4.07;3.08;;;;;;;;;;5009828;28;20483;-73
2021/04/12 06:51:51;;;;;;;3.53;3.20;;;;;;;;;;5006132;28;20475;-71
2021/04/12 06:54:41;;;;;;;4.75;4.00;;;2.90;99.90;;;;;;5007425;28;20448;-71
2021/04/12 06:57:16;;;;;;;3.53;3.05;;;;;;;;;;5007018;28;20408;-71
2021/04/12 06:59:51;;;;;;;3.85;2.90;;;;;;;;;;5009924;28;20483;-72
2021/04/12 08:41:06;;;;;;;5.87;4.23;;;4.40;99.90;;;;;;5119415;22;20519;-70
2021/04/12 08:43:44;;;;;;;5.30;4.40;;;4.80;99.90;;;;;;4965336;28;20447;-71
2021/04/12 08:46:25;;;;;;;5.10;4.30;;;;;;;;;;4993965;28;20387;-71
2021/04/12 08:48:57;;;;;;;5.27;4.67;;;;;;;;;;4992321;28;20549;-72
2021/04/12 08:51:42;;;;;;;6.00;4.15;;;;;;;;;;5019164;28;20724;-70
2021/04/12 08:54:45;;;;;;;5.03;3.80;;;4.90;99.90;;;;;;5013661;28;20404;-70
2021/04/12 08:57:33;;;;;;;5.10;4.60;;;;;;;;;;4995557;28;20808;-71
2021/04/12 09:00:19;;;;;;;6.05;4.68;;;;;;;;;;5012665;28;20891;-71
2021/04/12 09:02:45;;;;;;;6.23;4.50;;;;;;;;;;4963007;28;20574;-71
2021/04/12 09:05:35;;;;;;;4.15;3.75;;;5.00;99.90;;;;;;5013319;28;20799;-71
2021/04/12 09:08:28;;;;;;;5.90;4.15;;;;;;;;;;5015505;28;20467;-69
2021/04/12 09:11:11;;;;;;;4.18;3.72;;;;;;;;;;4985239;28;20404;-70
2021/04/12 09:14:22;;;;;;;4.00;3.60;;;5.40;99.90;;;;;;4993856;28;20857;-72
2021/04/12 09:17:14;;;;;;;3.65;3.22;;;5.40;99.90;;;;;;4983982;28;20418;-71
2021/04/12 09:20:05;;;;;;;4.10;3.50;;;5.70;99.90;;;;;;5005400;28;20399;-71
2021/04/12 09:22:31;;;;;;;4.13;3.72;;;;;;;;;;5011997;28;20456;-71
2021/04/12 09:25:08;;;;;;;4.22;3.65;;;;;;;;;;5011959;28;20772;-71
2021/04/12 09:27:37;;;;;;;5.40;4.15;;;;;;;;;;5012820;28;20780;-72
2021/04/12 09:30:24;;;;;;;6.10;3.80;;;5.60;99.90;;;;;;5012396;28;20384;-71
2021/04/12 09:33:10;;;;;;;4.18;3.60;;;5.50;99.90;;;;;;5011982;28;20396;-72
2021/04/12 09:35:51;;;;;;;3.92;3.42;;;;;;;;;;5012456;28;20899;-71
2021/04/12 09:38:20;;;;;;;4.63;3.47;;;;;;;;;;4994385;28;20399;-71
2021/04/12 09:41:01;;;;;;;3.85;3.40;;;;;;;;;;5009668;28;20455;-71
2021/04/12 09:43:46;;;;;;;4.00;3.60;;;;;;;;;;5012629;28;20396;-71
2021/04/12 09:46:24;;;;;;;6.20;3.50;;;;;;;;;;5011589;28;20860;-72
2021/04/12 09:49:05;;;;;;;3.63;3.10;;;;;;;;;;5007118;28;20876;-71
2021/04/12 09:51:50;;;;;;;4.10;3.38;;;;;;;;;;5009291;28;20385;-72
2021/04/12 09:54:22;;;;;;;4.60;3.60;;;;;;;;;;4992259;28;20749;-71
2021/04/12 09:57:07;;;;;;;3.70;3.30;;;;;;;;;;5007595;28;20385;-72
2021/04/12 09:59:53;;;;;;;3.90;3.50;;;;;;;;;;5004306;28;20392;-71
2021/04/12 10:02:50;;;;;;;4.00;3.60;;;5.80;99.90;;;;;;4954469;28;20870;-73
2021/04/12 10:05:34;;;;;;;3.80;3.30;;;5.70;99.90;;;;;;5006139;28;20436;-72
2021/04/12 10:08:07;;;;;;;3.80;3.47;;;;;;;;;;5009856;28;20396;-73
2021/04/12 10:10:51;;;;;;;4.20;3.60;;;5.60;99.90;;;;;;5007256;28;20397;-72
2021/04/12 10:13:36;;;;;;;4.85;3.97;;;;;;;;;;5010457;28;20392;-72
2021/04/12 10:16:15;;;;;;;4.57;3.90;;;;;;;;;;5005861;28;20485;-73
2021/04/12 10:18:41;;;;;;;5.70;4.05;;;;;;;;;;5005007;28;21681;-72
2021/04/12 10:21:18;;;;;;;4.70;3.70;;;;;;;;;;5008812;28;21101;-72
2021/04/12 10:23:47;;;;;;;4.38;3.97;;;;;;;;;;5005853;28;20384;-72
2021/04/12 10:26:21;;;;;;;5.10;4.00;;;;;;;;;;5007137;28;20393;-71
2021/04/12 10:28:47;;;;;;;5.22;3.90;;;;;;;;;;5003094;28;20375;-74
2021/04/12 10:31:16;;;;;;;7.90;4.70;;;;;;;;;;5008572;28;20449;-72
2021/04/12 10:33:48;;;;;;;5.15;4.55;;;6.30;99.90;;;;;;4990777;28;20798;-75
2021/04/12 10:36:59;;;;;;;4.53;4.10;;;7.00;99.90;;;;;;5006799;28;20415;-72
2021/04/12 10:39:31;;;;;;;5.53;4.05;;;;;;;;;;5000246;28;20452;-74
2021/04/12 10:42:26;;;;;;;6.20;4.28;;;5.70;99.90;;;;;;5006491;28;20386;-74
2021/04/12 10:45:00;;;;;;;5.40;3.90;;;;;;;;;;5004758;28;20446;-74
2021/04/12 10:47:30;;;;;;;4.30;3.75;;;;;;;;;;5007665;28;20392;-74
2021/04/12 10:50:22;;;;;;;7.50;4.50;;;;;;;;;;5006295;28;20367;-72
2021/04/12 10:52:57;;;;;;;4.50;4.10;;;;;;;;;;5008243;28;20392;-72
2021/04/12 10:55:28;;;;;;;4.00;3.60;;;;;;;;;;5000359;28;20908;-72
2021/04/12 10:57:57;;;;;;;4.85;3.60;;;;;;;;;;5000683;28;20381;-72
2021/04/12 11:00:32;;;;;;;3.90;3.33;;;;;;;;;;4999371;28;20389;-74
2021/04/12 11:03:25;;;;;;;5.10;3.10;;;7.90;99.90;;;;;;5008889;28;20385;-73
2021/04/12 11:06:14;;;;;;;3.10;2.80;;;;;;;;;;5007334;28;20413;-72
2021/04/12 11:08:47;;;;;;;3.20;2.70;;;;;;;;;;4989989;28;20397;-74
2021/04/12 11:11:19;;;;;;;3.20;2.90;;;7.60;99.90;;;;;;5002440;28;20405;-73
2021/04/12 11:13:54;;;;;;;3.10;2.83;;;;;;;;;;5007366;28;20519;-74
2021/04/12 11:16:32;;;;;;;5.05;3.00;;;;;;;;;;4993077;28;20419;-74
2021/04/12 11:19:04;;;;;;;2.80;2.60;;;;;;;;;;4989910;28;20397;-74
2021/04/12 11:21:42;;;;;;;3.00;2.70;;;6.60;99.90;;;;;;5006231;28;20741;-72
2021/04/12 11:24:18;;;;;;;3.47;3.00;;;;;;;;;;5005666;28;20776;-73
2021/04/12 11:27:21;;;;;;;3.03;2.72;;;6.60;99.90;;;;;;5005401;28;20897;-72
2021/04/12 11:30:00;;;;;;;3.17;2.83;;;;;;;;;;5003407;28;20851;-73
2021/04/12 11:32:41;;;;;;;3.60;3.05;;;;;;;;;;5009020;28;20776;-73
2021/04/12 11:35:12;;;;;;;3.88;2.90;;;;;;;;;;5010346;28;20411;-73
2021/04/12 11:38:04;;;;;;;4.70;3.17;;;;;;;;;;5008862;28;20507;-74
2021/04/12 11:40:32;;;;;;;4.07;2.75;;;;;;;;;;5021799;28;20415;-73
2021/04/12 11:43:07;;;;;;;3.30;2.63;;;;;;;;;;5029742;28;20379;-73
2021/04/12 11:45:41;;;;;;;2.97;2.65;;;;;;;;;;5029514;28;20375;-73
2021/04/12 11:48:10;;;;;;;3.45;3.15;;;;;;;;;;5028546;28;20938;-72
2021/04/12 11:50:39;;;;;;;3.13;2.85;;;;;;;;;;5029220;28;20723;-72
2021/04/12 11:53:11;;;;;;;4.32;3.30;;;;;;;;;;5027924;28;20905;-72
2021/04/12 11:55:43;;;;;;;3.90;3.17;;;;;;;;;;5029241;28;20492;-72
2021/04/12 11:58:28;;;;;;;3.75;3.45;;;8.90;99.90;;;;;;5016612;28;20388;-72
2021/04/12 12:01:03;;;;;;;7.75;4.80;;;;;;;;;;5008302;28;20408;-72
2021/04/12 12:03:59;;;;;;;11.70;5.70;;;10.30;99.90;;;;;;5009283;28;20392;-72
2021/04/12 12:06:28;;;;;;;4.32;3.40;;;;;;;;;;5009624;28;20426;-72
2021/04/12 12:09:32;;;;;;;3.63;3.17;;;10.90;96.80;;;;;;5009179;28;20420;-72
2021/04/12 12:12:35;;;;;;;3.40;2.80;;;10.50;97.50;;;;;;5008347;28;20488;-73
2021/04/12 12:15:19;;;;;;;4.03;3.30;;;;;;;;;;5008569;28;20401;-73
2021/04/12 12:17:53;;;;;;;3.45;2.88;;;9.70;99.90;;;;;;5008371;28;20454;-73
2021/04/12 12:20:41;;;;;;;4.50;3.30;;;8.80;99.90;;;;;;5010111;28;20396;-72
2021/04/12 12:23:26;;;;;;;3.95;3.20;;;7.50;99.90;;;;;;5008089;28;20396;-72
2021/04/12 12:25:53;;;;;;;5.13;3.22;;;;;;;;;;5009342;28;20435;-74
2021/04/12 12:28:28;;;;;;;3.58;2.80;;;;;;;;;;5001395;28;20385;-73
2021/04/12 12:31:33;;;;;;;3.28;2.97;;;7.50;99.90;;;;;;5008833;28;20393;-73
2021/04/12 12:34:04;;;;;;;4.70;3.03;;;;;;;;;;5006280;28;20428;-73
2021/04/12 12:37:00;;;;;;;4.07;3.30;;;;;;;;;;5006792;28;20437;-73
2021/04/12 12:39:45;;;;;;;3.45;3.15;;;7.70;99.90;;;;;;4974045;28;20404;-73
2021/04/12 12:42:26;;;;;;;3.92;3.33;;;7.70;99.90;;;;;;5001727;28;20877;-72
2021/04/12 12:44:54;;;;;;;3.33;3.03;;;7.60;99.90;;;;;;5009292;28;20480;-73
2021/04/12 12:47:23;;;;;;;3.70;3.40;;;7.40;99.90;;;;;;5009432;28;20392;-73
2021/04/12 12:49:52;;;;;;;4.13;3.72;;;;;;;;;;5009590;28;20443;-73
2021/04/12 12:52:29;;;;;;;5.55;3.53;;;;;;;;;;5008484;28;20381;-73
2021/04/12 12:54:56;;;;;;;5.25;3.30;;;;;;;;;;4992819;28;20415;-74
2021/04/12 12:57:27;;;;;;;3.17;2.88;;;9.40;99.90;;;;;;4995019;28;20401;-74
2021/04/12 12:59:54;;;;;;;3.80;3.20;;;;;;;;;;5012666;28;20397;-75
2021/04/12 13:02:20;;;;;;;4.60;3.47;;;;;;;;;;4995465;28;20484;-74
2021/04/12 13:05:03;;;;;;;5.35;3.08;;;;;;;;;;5013362;28;20400;-73
2021/04/12 13:07:30;;;;;;;3.50;3.20;;;;;;;;;;5013510;28;20460;-74
2021/04/12 13:10:09;;;;;;;3.20;2.90;;;9.70;99.90;;;;;;5011863;28;20393;-76
2021/04/12 13:12:38;;;;;;;3.80;3.10;;;8.60;99.90;;;;;;5012625;28;20808;-74
2021/04/12 13:15:33;;;;;;;3.10;2.80;;;9.00;99.90;;;;;;4994382;28;20952;-74
2021/04/12 13:18:20;;;;;;;3.33;3.03;;;8.40;98.10;;;;;;4984636;28;20991;-73
2021/04/12 13:20:57;;;;;;;3.25;2.95;;;7.70;99.90;;;;;;5012608;28;20924;-74
2021/04/12 13:23:25;;;;;;;6.82;3.40;;;;;;;;;;5012669;28;20441;-73
2021/04/12 13:25:54;;;;;;;3.63;3.23;;;;;;;;;;5012646;28;20955;-72
2021/04/12 13:28:22;;;;;;;5.07;2.90;;;;;;;;;;5011751;28;20511;-73
2021/04/12 13:31:12;;;;;;;3.37;2.60;;;7.70;99.90;;;;;;4994759;28;20392;-72
2021/04/12 13:33:48;;;;;;;9.60;3.53;;;7.70;99.90;;;;;;5012772;28;20381;-72
2021/04/12 13:36:23;;;;;;;3.50;3.10;;;8.20;99.90;;;;;;5011587;28;20835;-73
2021/04/12 13:38:52;;;;;;;3.30;3.00;;;8.20;99.90;;;;;;5012608;28;20395;-71
2021/04/12 13:41:25;;;;;;;3.45;3.13;;;;;;;;;;5012164;28;20420;-72
2021/04/12 13:43:56;;;;;;;3.22;2.65;;;8.40;99.90;;;;;;5012722;28;20775;-73
2021/04/12 13:46:28;;;;;;;2.30;2.10;;;;;;;;;;5012727;28;20858;-72
2021/04/12 13:49:14;;;;;;;2.78;2.55;;;;;;;;;;5013004;28;20476;-74
2021/04/12 13:51:43;;;;;;;3.22;2.90;;;;;;;;;;5012063;28;20478;-74
2021/04/12 13:54:18;;;;;;;2.97;2.78;;;;;;;;;;5010607;28;20484;-74
2021/04/12 13:56:52;;;;;;;3.67;2.65;;;;;;;;;;5011634;28;20475;-74
2021/04/12 13:59:23;;;;;;;2.90;2.60;;;;;;;;;;5010724;28;20377;-74
2021/04/12 14:02:00;;;;;;;2.90;2.70;;;;;;;;;;5011501;28;20381;-74
2021/04/12 14:04:47;;;;;;;2.38;2.13;;;9.90;96.40;;;;;;5011658;28;20388;-74
2021/04/12 14:07:26;;;;;;;3.15;2.45;;;9.00;99.90;;;;;;5010331;28;20396;-74
2021/04/12 14:10:02;;;;;;;2.70;2.50;;;;;;;;;;5011645;28;20396;-74
2021/04/12 14:12:31;;;;;;;2.70;2.50;;;9.10;95.90;;;;;;4994463;28;20435;-73
2021/04/12 14:14:57;;;;;;;3.65;2.58;;;;;;;;;;5011195;28;20420;-75
2021/04/12 14:17:31;;;;;;;3.03;2.20;;;9.00;98.90;;;;;;5012262;28;20865;-74
2021/04/12 14:20:12;;;;;;;2.65;2.40;;;;;;;;;;5011392;28;20403;-74
2021/04/12 14:22:50;;;;;;;3.45;2.45;;;9.20;99.90;;;;;;5011838;28;20867;-74
2021/04/12 14:25:31;;;;;;;3.58;2.78;;;9.20;99.90;;;;;;5011280;28;21166;-74
2021/04/12 14:28:15;;;;;;;3.15;2.40;;;;;;;;;;5011647;28;20730;-74
2021/04/12 14:30:49;;;;;;;3.03;2.72;;;11.20;99.20;;;;;;5010277;28;20397;-75
2021/04/12 14:33:22;;;;;;;5.63;3.03;;;;;;;;;;5010794;28;20412;-75
2021/04/12 14:35:49;;;;;;;2.80;2.60;;;;;;;;;;5011266;28;20415;-74
2021/04/12 14:38:22;;;;;;;2.70;2.50;;;;;;;;;;5010662;28;20381;-75
2021/04/12 14:40:53;;;;;;;3.40;3.10;;;;;;;;;;4991276;28;20815;-76
2021/04/12 14:43:19;;;;;;;3.80;2.40;;;;;;;;;;4995343;28;20408;-76
2021/04/12 14:45:48;;;;;;;3.20;2.90;;;;;;;;;;5006617;28;20389;-75
2021/04/12 14:48:28;;;;;;;2.60;2.40;;;10.50;95.50;;;;;;5008166;28;20840;-76
2021/04/12 14:50:59;;;;;;;2.33;2.13;;;9.90;97.90;;;;;;5011149;28;20464;-76
2021/04/12 14:53:27;;;;;;;3.05;2.55;;;;;;;;;;5010718;28;20393;-76
2021/04/12 14:56:02;;;;;;;3.90;3.10;;;;;;;;;;5010444;28;21105;-74
2021/04/12 14:58:28;;;;;;;2.60;2.40;;;;;;;;;;5010864;28;20399;-75
2021/04/12 15:01:20;;;;;;;2.67;2.47;;;;;;;;;;5010063;28;20456;-75
2021/04/12 15:04:00;;;;;;;2.83;2.55;;;;;;;;;;5006185;28;20440;-75
2021/04/12 15:06:56;;;;;;;3.60;2.70;;;9.50;97.30;;;;;;5008483;28;20639;-74
2021/04/12 15:09:25;;;;;;;2.67;2.47;;;;;;;;;;4975843;28;20440;-75
2021/04/12 15:11:54;;;;;;;2.50;2.30;;;;;;;;;;5011084;28;20397;-76
2021/04/12 15:14:23;;;;;;;3.65;2.42;;;;;;;;;;4997470;28;20427;-75
2021/04/12 15:17:10;;;;;;;3.10;2.80;;;10.90;92.70;;;;;;5004655;28;20468;-76
2021/04/12 15:19:56;;;;;;;2.67;2.47;;;;;;;;;;5007009;28;20427;-75
2021/04/12 15:22:33;;;;;;;3.00;2.70;;;10.30;95.60;;;;;;5009209;28;20381;-73
2021/04/12 15:25:05;;;;;;;2.50;2.30;;;;;;;;;;5010472;28;20422;-75
2021/04/12 15:27:31;;;;;;;2.50;2.30;;;;;;;;;;4992313;28;20706;-73
2021/04/12 15:30:04;;;;;;;2.80;2.47;;;10.60;98.70;;;;;;5008907;28;20439;-73
2021/04/12 15:32:49;;;;;;;2.47;2.22;;;9.50;95.60;;;;;;5009138;28;20393;-74
2021/04/12 15:35:14;;;;;;;2.90;2.70;;;9.70;99.00;;;;;;4998630;28;20443;-74
2021/04/12 15:37:51;;;;;;;2.80;2.20;;;9.60;97.20;;;;;;5006758;28;20389;-74
2021/04/12 15:40:20;;;;;;;2.83;2.30;;;9.50;93.10;;;;;;5001346;28;20416;-74
2021/04/12 15:43:06;;;;;;;2.10;1.90;;;;;;;;;;5004079;28;20500;-74
2021/04/12 15:45:38;;;;;;;2.40;2.10;;;;;;;;;;4988114;28;20391;-74
2021/04/12 15:48:13;;;;;;;2.10;1.55;;;;;;;;;;5010028;28;20385;-73
2021/04/12 15:50:41;;;;;;;2.15;1.73;;;;;;;;;;5003309;28;20923;-74
2021/04/12 15:53:13;;;;;;;1.70;1.60;;;;;;;;;;5004441;28;20392;-73
2021/04/12 15:55:43;;;;;;;2.40;2.00;;;9.00;91.90;;;;;;5007268;28;20413;-72
2021/04/12 15:58:16;;;;;;;1.88;1.75;;;;;;;;;;5003452;28;20406;-73
2021/04/12 16:00:44;;;;;;;1.60;1.20;;;9.60;95.50;;;;;;4980859;28;20966;-72
2021/04/12 16:03:12;;;;;;;3.05;1.60;;;;;;;;;;4996862;28;20387;-76
2021/04/12 16:06:04;;;;;;;2.50;1.65;;;;;;;;;;4998195;28;20547;-75
2021/04/12 16:08:30;;;;;;;1.70;1.50;;;;;;;;;;4995790;28;20404;-76
2021/04/12 16:11:01;;;;;;;4.13;1.63;;;10.60;89.40;;;;;;5009408;28;20607;-74
2021/04/12 16:13:46;;;;;;;2.20;1.30;;;10.60;93.20;;;;;;5010031;28;20412;-74
2021/04/12 16:16:22;;;;;;;2.30;1.60;;;;;;;;;;4996375;28;20413;-73
2021/04/12 16:18:52;;;;;;;1.70;1.60;;;;;;;;;;5009544;28;20393;-73
2021/04/12 16:21:27;;;;;;;2.00;1.50;;;;;;;;;;5008001;28;20412;-74
2021/04/12 16:23:53;;;;;;;1.52;1.42;;;;;;;;;;5007951;28;20403;-74
2021/04/12 16:26:22;;;;;;;1.52;1.42;;;11.40;85.90;;;;;;5008440;28;20388;-74
2021/04/12 16:28:54;;;;;;;2.30;1.40;;;;;;;;;;5005374;28;20415;-74
2021/04/12 16:31:27;;;;;;;1.40;1.20;;;;;;;;;;5008568;28;20392;-74
2021/04/12 16:33:54;;;;;;;1.30;1.20;;;;;;;;;;4993515;28;20696;-74
2021/04/12 16:36:54;;;;;;;2.00;1.50;;;10.80;82.90;;;;;;4990578;28;20520;-74
2021/04/12 16:39:27;;;;;;;1.60;1.50;;;9.80;83.80;;;;;;4980717;28;20868;-74
2021/04/12 16:42:03;;;;;;;1.60;1.30;;;10.20;86.20;;;;;;5009518;28;20809;-73
2021/04/12 16:44:35;;;;;;;2.55;1.48;;;9.80;85.30;;;;;;5012889;28;20420;-74
2021/04/12 16:47:06;;;;;;;1.50;1.40;;;9.70;81.60;;;;;;5011059;28;20468;-73
2021/04/12 16:49:35;;;;;;;2.30;1.60;;;10.20;76.90;;;;;;5008599;28;20397;-73
2021/04/12 16:52:06;;;;;;;1.50;1.40;;;;;;;;;;5013940;28;20472;-73